createdAt,value
2023-02-14T00:00:25.728Z,4.93
2023-02-14T00:02:52.152Z,4.89
2023-02-14T00:05:18.640Z,4.83
2023-02-14T00:07:45.093Z,4.78
2023-02-14T00:10:11.499Z,4.75
2023-02-14T00:12:37.949Z,4.81
2023-02-14T00:15:22.841Z,4.79
2023-02-14T00:17:54.818Z,4.85
2023-02-14T00:20:22.189Z,4.88
2023-02-14T00:22:49.000Z,4.84
2023-02-14T00:25:15.900Z,4.78
2023-02-14T00:27:42.434Z,4.81
2023-02-14T00:30:11.139Z,4.76
2023-02-14T00:32:39.429Z,4.74
2023-02-14T00:35:07.434Z,4.71
2023-02-14T00:37:34.357Z,4.68
2023-02-14T00:40:00.714Z,4.72
2023-02-14T00:42:27.163Z,4.73
2023-02-14T00:44:53.493Z,4.79
2023-02-14T00:47:19.826Z,4.80
2023-02-14T00:49:46.228Z,4.77
2023-02-14T00:52:12.798Z,4.68
2023-02-14T00:54:39.400Z,4.65
2023-02-14T00:57:05.735Z,4.62
2023-02-14T00:59:32.184Z,4.65
2023-02-14T01:01:58.612Z,4.66
2023-02-14T01:04:25.104Z,4.65
2023-02-14T01:06:51.477Z,4.61
2023-02-14T01:09:17.851Z,4.60
2023-02-14T01:11:44.320Z,4.68
2023-02-14T01:14:10.774Z,4.76
2023-02-14T01:16:38.791Z,4.78
2023-02-14T01:19:05.424Z,4.77
2023-02-14T01:21:33.891Z,4.65
2023-02-14T01:24:03.704Z,4.56
2023-02-14T01:26:30.071Z,4.60
2023-02-14T01:28:56.865Z,4.64
2023-02-14T01:31:28.513Z,4.64
2023-02-14T01:33:56.124Z,4.66
2023-02-14T01:36:25.372Z,4.66
2023-02-14T01:38:53.990Z,4.49
2023-02-14T01:41:21.457Z,4.45
2023-02-14T01:43:59.698Z,4.42
2023-02-14T01:46:28.668Z,4.48
2023-02-14T01:49:00.998Z,4.51
2023-02-14T01:51:28.385Z,4.48
2023-02-14T01:53:54.796Z,4.50
2023-02-14T01:56:29.825Z,4.48
2023-02-14T01:59:00.649Z,4.46
2023-02-14T02:01:28.078Z,4.48
2023-02-14T02:03:57.522Z,4.38
2023-02-14T02:06:30.991Z,4.46
2023-02-14T02:09:08.045Z,4.46
2023-02-14T02:11:35.071Z,4.47
2023-02-14T02:14:01.817Z,4.39
2023-02-14T02:16:43.196Z,4.26
2023-02-14T02:19:21.987Z,4.15
2023-02-14T02:22:13.722Z,4.10
2023-02-14T02:25:04.510Z,4.04
2023-02-14T02:27:46.490Z,4.07
2023-02-14T02:30:31.136Z,4.16
2023-02-14T02:33:39.518Z,4.10
2023-02-14T02:36:12.058Z,4.09
2023-02-14T02:39:20.597Z,4.12
2023-02-14T02:42:00.156Z,4.01
2023-02-14T02:45:08.412Z,4.08
2023-02-14T02:47:52.372Z,4.06
2023-02-14T02:50:56.647Z,4.02
2023-02-14T02:53:39.378Z,3.97
2023-02-14T02:56:29.775Z,4.01
2023-02-14T02:59:01.042Z,3.97
2023-02-14T03:01:31.783Z,3.93
2023-02-14T03:04:25.649Z,3.98
2023-02-14T03:06:52.833Z,4.04
2023-02-14T03:09:19.103Z,3.99
2023-02-14T03:12:11.225Z,3.93
2023-02-14T03:15:02.623Z,3.91
2023-02-14T03:17:36.582Z,3.91
2023-02-14T03:20:30.497Z,3.84
2023-02-14T03:23:13.900Z,3.79
2023-02-14T03:25:55.570Z,3.85
2023-02-14T03:28:42.704Z,3.89
2023-02-14T03:31:27.799Z,3.94
2023-02-14T03:34:01.557Z,3.90
2023-02-14T03:36:35.105Z,3.88
2023-02-14T03:39:25.699Z,3.86
2023-02-14T03:41:59.944Z,3.85
2023-02-14T03:44:30.081Z,3.75
2023-02-14T03:47:02.869Z,3.75
2023-02-14T03:49:35.820Z,3.78
2023-02-14T03:52:04.111Z,3.84
2023-02-14T03:54:32.753Z,3.75
2023-02-14T03:57:17.044Z,3.67
2023-02-14T03:59:43.478Z,3.68
2023-02-14T04:02:18.805Z,3.70
2023-02-14T04:04:48.345Z,3.78
2023-02-14T04:07:20.793Z,3.81
2023-02-14T04:09:47.741Z,3.78
2023-02-14T04:12:16.940Z,3.81
2023-02-14T04:14:44.804Z,3.81
2023-02-14T04:17:30.276Z,3.77
2023-02-14T04:19:56.675Z,3.78
2023-02-14T04:22:23.045Z,3.79
2023-02-14T04:24:49.396Z,3.72
2023-02-14T04:27:15.792Z,3.70
2023-02-14T04:29:44.418Z,3.72
2023-02-14T04:32:13.507Z,3.78
2023-02-14T04:34:40.179Z,3.79
2023-02-14T04:37:07.389Z,3.63
2023-02-14T04:39:34.692Z,3.64
2023-02-14T04:42:01.252Z,3.64
2023-02-14T04:44:27.796Z,3.53
2023-02-14T04:46:54.190Z,3.53
2023-02-14T04:49:20.758Z,3.61
2023-02-14T04:51:47.997Z,3.65
2023-02-14T04:54:14.504Z,3.65
2023-02-14T04:56:40.866Z,3.67
2023-02-14T04:59:07.251Z,3.62
2023-02-14T05:01:33.589Z,3.60
2023-02-14T05:04:00.306Z,3.59
2023-02-14T05:06:26.902Z,3.67
2023-02-14T05:08:53.303Z,3.72
2023-02-14T05:11:19.649Z,3.72
2023-02-14T05:13:46.131Z,3.74
2023-02-14T05:16:12.547Z,3.78
2023-02-14T05:18:39.223Z,3.83
2023-02-14T05:21:05.906Z,3.80
2023-02-14T05:23:32.523Z,3.73
2023-02-14T05:25:58.940Z,3.71
2023-02-14T05:28:25.326Z,3.70
2023-02-14T05:30:52.489Z,3.73
2023-02-14T05:33:19.157Z,3.60
2023-02-14T05:35:45.674Z,3.63
2023-02-14T05:38:13.176Z,3.71
2023-02-14T05:40:40.447Z,3.75
2023-02-14T05:43:07.336Z,3.79
2023-02-14T05:45:33.866Z,3.76
2023-02-14T05:48:00.384Z,3.77
2023-02-14T05:50:26.717Z,3.78
2023-02-14T05:52:53.323Z,3.72
2023-02-14T05:55:19.707Z,3.76
2023-02-14T05:57:46.858Z,3.79
2023-02-14T06:00:14.464Z,3.77
2023-02-14T06:02:41.256Z,3.85
2023-02-14T06:05:08.188Z,3.82
2023-02-14T06:07:34.644Z,3.79
2023-02-14T06:10:00.969Z,3.81
2023-02-14T06:12:27.574Z,3.81
2023-02-14T06:14:53.919Z,3.83
2023-02-14T06:17:20.308Z,3.85
2023-02-14T06:19:46.683Z,3.91
2023-02-14T06:22:13.153Z,3.96
2023-02-14T06:24:39.492Z,3.96
2023-02-14T06:27:05.925Z,4.02
2023-02-14T06:29:32.268Z,4.03
2023-02-14T06:32:05.765Z,4.05
2023-02-14T06:34:33.576Z,4.02
2023-02-14T06:37:00.510Z,4.03
2023-02-14T06:39:26.969Z,4.02
2023-02-14T06:41:53.499Z,4.02
2023-02-14T06:44:19.888Z,3.99
2023-02-14T06:46:46.289Z,3.98
2023-02-14T06:49:12.626Z,4.01
2023-02-14T06:51:39.128Z,4.03
2023-02-14T06:54:05.556Z,4.09
2023-02-14T06:56:31.982Z,4.11
2023-02-14T06:58:58.352Z,4.16
2023-02-14T07:01:24.954Z,4.13
2023-02-14T07:03:51.312Z,4.21
2023-02-14T07:06:17.855Z,4.21
2023-02-14T07:08:44.251Z,4.22
2023-02-14T07:11:10.798Z,4.19
2023-02-14T07:13:37.132Z,4.22
2023-02-14T07:16:04.189Z,4.25
2023-02-14T07:18:30.582Z,4.27
2023-02-14T07:20:57.365Z,4.29
2023-02-14T07:23:23.818Z,4.32
2023-02-14T07:25:50.343Z,4.32
2023-02-14T07:28:16.727Z,4.33
2023-02-14T07:30:43.266Z,4.33
2023-02-14T07:33:09.601Z,4.38
2023-02-14T07:35:36.034Z,4.42
2023-02-14T07:38:02.400Z,4.43
2023-02-14T07:40:30.007Z,4.47
2023-02-14T07:42:58.041Z,4.51
2023-02-14T07:45:25.126Z,4.54
2023-02-14T07:47:54.220Z,4.57
2023-02-14T07:50:22.895Z,4.56
2023-02-14T07:52:49.443Z,4.61
2023-02-14T07:55:16.391Z,4.65
2023-02-14T07:57:43.016Z,4.67
2023-02-14T08:00:09.875Z,4.68
2023-02-14T08:02:36.256Z,4.74
2023-02-14T08:05:02.718Z,4.80
2023-02-14T08:07:29.267Z,4.82
2023-02-14T08:09:55.601Z,4.82
2023-02-14T08:12:40.920Z,4.81
2023-02-14T08:15:26.340Z,4.83
2023-02-14T08:17:52.701Z,4.83
2023-02-14T08:20:19.157Z,4.83
2023-02-14T08:22:45.480Z,4.85
2023-02-14T08:25:11.845Z,4.95
2023-02-14T08:27:38.263Z,4.98
2023-02-14T08:30:05.055Z,4.99
2023-02-14T08:32:31.669Z,5.03
2023-02-14T08:34:58.128Z,5.05
2023-02-14T08:37:24.493Z,5.09
2023-02-14T08:39:50.854Z,5.08
2023-02-14T08:42:17.343Z,5.03
2023-02-14T08:44:43.742Z,5.08
2023-02-14T08:47:10.188Z,5.13
2023-02-14T08:49:36.559Z,5.16
2023-02-14T08:52:03.015Z,5.25
2023-02-14T08:54:29.355Z,5.35
2023-02-14T08:56:56.159Z,5.47
2023-02-14T08:59:22.538Z,5.48
2023-02-14T09:01:48.989Z,5.54
2023-02-14T09:04:15.394Z,5.64
2023-02-14T09:06:41.848Z,5.69
2023-02-14T09:09:08.232Z,5.73
2023-02-14T09:11:35.136Z,5.72
2023-02-14T09:14:01.570Z,5.75
2023-02-14T09:16:28.072Z,5.75
2023-02-14T09:18:54.935Z,5.78
2023-02-14T09:21:25.153Z,5.79
2023-02-14T09:23:51.898Z,5.77
2023-02-14T09:26:18.627Z,5.84
2023-02-14T09:28:45.813Z,5.83
2023-02-14T09:31:12.246Z,5.79
2023-02-14T09:33:38.817Z,5.79
2023-02-14T09:36:24.311Z,5.86
2023-02-14T09:38:50.705Z,5.90
2023-02-14T09:41:31.351Z,5.93
2023-02-14T09:44:05.458Z,5.93
2023-02-14T09:46:42.878Z,5.95
2023-02-14T09:49:14.861Z,5.96
2023-02-14T09:51:47.685Z,5.95
2023-02-14T09:54:22.562Z,6.02
2023-02-14T09:57:12.240Z,6.02
2023-02-14T09:59:50.172Z,6.05
2023-02-14T10:02:25.593Z,6.03
2023-02-14T10:05:13.246Z,6.07
2023-02-14T10:07:42.607Z,6.09
2023-02-14T10:10:30.825Z,6.12
2023-02-14T10:13:11.743Z,6.15
2023-02-14T10:15:45.379Z,6.24
2023-02-14T10:18:19.059Z,6.38
2023-02-14T10:20:56.549Z,6.50
2023-02-14T10:23:43.398Z,6.70
2023-02-14T10:26:19.709Z,6.83
2023-02-14T10:28:49.260Z,6.96
2023-02-14T10:31:34.072Z,7.12
2023-02-14T10:34:18.429Z,7.29
2023-02-14T10:36:56.037Z,7.44
2023-02-14T10:39:35.588Z,7.60
2023-02-14T10:42:11.770Z,7.70
2023-02-14T10:44:56.622Z,7.76
2023-02-14T10:47:31.760Z,7.85
2023-02-14T10:50:09.781Z,7.90
2023-02-14T10:52:57.262Z,8.07
2023-02-14T10:55:33.120Z,8.01
2023-02-14T10:58:04.731Z,8.02
2023-02-14T11:00:37.732Z,8.06
2023-02-14T11:03:07.996Z,8.26
2023-02-14T11:05:39.167Z,8.34
2023-02-14T11:08:41.098Z,8.37
2023-02-14T11:11:07.369Z,8.34
2023-02-14T11:13:39.330Z,8.37
2023-02-14T11:16:12.150Z,8.43
2023-02-14T11:18:40.974Z,8.56
2023-02-14T11:21:17.800Z,8.56
2023-02-14T11:23:49.813Z,8.55
2023-02-14T11:26:47.881Z,8.58
2023-02-14T11:29:22.550Z,8.58
2023-02-14T11:31:49.209Z,8.67
2023-02-14T11:34:36.784Z,8.60
2023-02-14T11:37:16.533Z,8.57
2023-02-14T11:39:43.101Z,8.59
2023-02-14T11:42:12.667Z,8.53
2023-02-14T11:44:55.230Z,8.66
2023-02-14T11:47:28.867Z,8.65
2023-02-14T11:49:58.607Z,8.69
2023-02-14T11:52:28.576Z,8.73
2023-02-14T11:54:57.223Z,8.76
2023-02-14T11:57:32.429Z,8.96
2023-02-14T12:00:01.336Z,9.09
2023-02-14T12:02:40.744Z,9.20
2023-02-14T12:05:23.389Z,9.31
2023-02-14T12:07:55.344Z,9.36
2023-02-14T12:10:27.579Z,9.58
2023-02-14T12:13:04.159Z,9.72
2023-02-14T12:15:37.926Z,9.80
2023-02-14T12:18:26.683Z,9.94
2023-02-14T12:21:40.278Z,10.08
2023-02-14T12:24:23.664Z,10.46
2023-02-14T12:27:24.487Z,10.82
2023-02-14T12:30:15.356Z,10.67
2023-02-14T12:32:51.571Z,10.76
2023-02-14T12:35:35.236Z,10.76
2023-02-14T12:38:40.723Z,10.81
2023-02-14T12:41:36.505Z,10.66
2023-02-14T12:44:23.927Z,10.68
2023-02-14T12:47:09.867Z,10.73
2023-02-14T12:49:55.949Z,11.16
2023-02-14T12:52:43.612Z,11.61
2023-02-14T12:55:34.580Z,11.88
2023-02-14T12:58:13.398Z,11.84
2023-02-14T13:00:58.196Z,12.24
2023-02-14T13:03:46.608Z,12.41
2023-02-14T13:06:28.251Z,12.48
2023-02-14T13:09:02.381Z,12.59
2023-02-14T13:11:57.503Z,12.33
2023-02-14T13:14:39.738Z,12.47
2023-02-14T13:17:27.301Z,12.51
2023-02-14T13:20:05.525Z,12.34
2023-02-14T13:22:34.009Z,12.11
2023-02-14T13:25:05.621Z,11.96
2023-02-14T13:27:36.512Z,12.17
2023-02-14T13:30:23.750Z,12.16
2023-02-14T13:32:51.897Z,12.30
2023-02-14T13:35:22.154Z,12.73
2023-02-14T13:37:53.886Z,12.91
2023-02-14T13:40:26.197Z,12.79
2023-02-14T13:43:00.923Z,13.17
2023-02-14T13:45:30.551Z,13.38
2023-02-14T13:48:06.484Z,13.18
2023-02-14T13:50:48.631Z,13.32
2023-02-14T13:53:30.626Z,13.20
2023-02-14T13:55:57.253Z,13.49
2023-02-14T13:58:25.605Z,13.33
2023-02-14T14:00:52.875Z,13.33
2023-02-14T14:03:28.860Z,13.37
2023-02-14T14:06:13.338Z,13.46
2023-02-14T14:08:40.824Z,13.41
2023-02-14T14:11:22.091Z,13.56
2023-02-14T14:14:36.033Z,13.52
2023-02-14T14:17:17.471Z,12.85
2023-02-14T14:19:45.517Z,12.62
2023-02-14T14:22:15.112Z,12.35
2023-02-14T14:24:52.680Z,12.05
2023-02-14T14:27:29.767Z,11.95
2023-02-14T14:29:58.848Z,11.74
2023-02-14T14:32:29.840Z,11.37
2023-02-14T14:35:03.061Z,11.30
2023-02-14T14:37:35.546Z,11.15
2023-02-14T14:40:08.182Z,10.98
2023-02-14T14:42:37.460Z,10.86
2023-02-14T14:45:08.052Z,10.72
2023-02-14T14:47:43.339Z,10.68
2023-02-14T14:50:17.097Z,10.71
2023-02-14T14:52:48.143Z,10.67
2023-02-14T14:55:24.136Z,10.63
2023-02-14T14:58:04.070Z,10.58
2023-02-14T15:00:33.382Z,10.55
2023-02-14T15:03:12.028Z,10.49
2023-02-14T15:05:44.274Z,10.46
2023-02-14T15:08:19.767Z,10.33
2023-02-14T15:10:58.069Z,10.14
2023-02-14T15:13:52.796Z,10.16
2023-02-14T15:16:22.218Z,10.11
2023-02-14T15:18:50.950Z,9.99
2023-02-14T15:21:17.519Z,9.97
2023-02-14T15:23:45.095Z,9.95
2023-02-14T15:26:18.861Z,9.85
2023-02-14T15:28:54.765Z,9.82
2023-02-14T15:31:22.088Z,9.83
2023-02-14T15:33:48.855Z,9.78
2023-02-14T15:36:21.236Z,9.80
2023-02-14T15:38:48.007Z,9.71
2023-02-14T15:41:16.637Z,9.74
2023-02-14T15:43:43.288Z,9.74
2023-02-14T15:46:26.229Z,9.63
2023-02-14T15:48:54.727Z,9.56
2023-02-14T15:51:33.317Z,9.53
2023-02-14T15:54:02.842Z,9.38
2023-02-14T15:56:33.408Z,9.37
2023-02-14T15:59:07.153Z,9.34
2023-02-14T16:01:36.717Z,9.33
2023-02-14T16:04:06.422Z,9.22
2023-02-14T16:06:44.231Z,9.17
2023-02-14T16:09:26.664Z,9.14
2023-02-14T16:11:53.620Z,9.17
2023-02-14T16:14:35.466Z,9.12
2023-02-14T16:17:11.624Z,9.05
2023-02-14T16:19:46.144Z,8.96
2023-02-14T16:22:32.171Z,8.78
2023-02-14T16:24:59.481Z,8.76
2023-02-14T16:27:25.841Z,8.76
2023-02-14T16:29:52.441Z,8.58
2023-02-14T16:32:21.616Z,8.47
2023-02-14T16:34:48.970Z,8.32
2023-02-14T16:37:28.779Z,8.22
2023-02-14T16:39:59.170Z,8.07
2023-02-14T16:42:25.552Z,7.93
2023-02-14T16:44:52.417Z,7.86
2023-02-14T16:47:20.399Z,7.99
2023-02-14T16:49:46.912Z,8.05
2023-02-14T16:52:16.704Z,8.10
2023-02-14T16:54:43.732Z,8.04
2023-02-14T16:57:28.088Z,7.86
2023-02-14T16:59:56.213Z,7.69
2023-02-14T17:02:22.950Z,7.63
2023-02-14T17:04:49.406Z,7.52
2023-02-14T17:07:16.129Z,7.65
2023-02-14T17:09:49.995Z,7.65
2023-02-14T17:12:24.835Z,7.56
2023-02-14T17:14:55.801Z,7.42
2023-02-14T17:17:22.347Z,7.42
2023-02-14T17:19:50.373Z,7.51
2023-02-14T17:22:18.773Z,7.51
2023-02-14T17:24:45.141Z,7.49
2023-02-14T17:27:11.482Z,7.44
2023-02-14T17:29:37.854Z,7.45
2023-02-14T17:32:04.428Z,7.47
2023-02-14T17:34:34.178Z,7.51
2023-02-14T17:37:00.630Z,7.46
2023-02-14T17:39:27.006Z,7.47
2023-02-14T17:41:53.437Z,7.45
2023-02-14T17:44:19.807Z,7.41
2023-02-14T17:46:46.339Z,7.37
2023-02-14T17:49:12.698Z,7.34
2023-02-14T17:51:39.079Z,7.36
2023-02-14T17:54:05.524Z,7.32
2023-02-14T17:56:32.099Z,7.30
2023-02-14T17:58:59.705Z,7.29
2023-02-14T18:01:31.641Z,7.29
2023-02-14T18:03:58.333Z,7.23
2023-02-14T18:06:26.506Z,7.24
2023-02-14T18:08:56.570Z,7.30
2023-02-14T18:11:25.983Z,7.20
2023-02-14T18:13:56.397Z,7.21
2023-02-14T18:16:22.964Z,7.15
2023-02-14T18:18:49.433Z,7.08
2023-02-14T18:21:20.339Z,7.01
2023-02-14T18:23:47.025Z,7.02
2023-02-14T18:26:15.470Z,7.06
2023-02-14T18:28:42.026Z,7.03
2023-02-14T18:31:11.565Z,6.96
2023-02-14T18:33:38.595Z,6.84
2023-02-14T18:36:08.345Z,6.83
2023-02-14T18:38:35.459Z,6.79
2023-02-14T18:41:06.597Z,6.76
2023-02-14T18:43:33.584Z,6.72
2023-02-14T18:46:11.483Z,6.70
2023-02-14T18:48:38.607Z,6.75
2023-02-14T18:51:19.718Z,6.67
2023-02-14T18:53:47.415Z,6.70
2023-02-14T18:56:18.912Z,6.59
2023-02-14T18:58:48.629Z,6.67
2023-02-14T19:01:18.615Z,6.70
2023-02-14T19:03:45.884Z,6.70
2023-02-14T19:06:13.109Z,6.65
2023-02-14T19:08:40.619Z,6.58
2023-02-14T19:11:21.237Z,6.50
2023-02-14T19:13:51.060Z,6.47
2023-02-14T19:16:21.466Z,6.48
2023-02-14T19:18:49.711Z,6.42
2023-02-14T19:21:24.252Z,6.39
2023-02-14T19:23:53.511Z,6.33
2023-02-14T19:26:25.858Z,6.35
2023-02-14T19:28:58.043Z,6.36
2023-02-14T19:31:25.590Z,6.30
2023-02-14T19:33:52.581Z,6.25
2023-02-14T19:36:20.929Z,6.16
2023-02-14T19:38:50.235Z,6.06
2023-02-14T19:41:23.068Z,5.99
2023-02-14T19:43:53.419Z,5.95
2023-02-14T19:46:21.157Z,5.94
2023-02-14T19:48:48.764Z,6.04
2023-02-14T19:51:25.616Z,6.04
2023-02-14T19:53:52.734Z,6.12
2023-02-14T19:56:21.282Z,6.09
2023-02-14T19:58:48.792Z,6.03
2023-02-14T20:01:28.981Z,6.05
2023-02-14T20:03:55.372Z,6.02
2023-02-14T20:06:22.775Z,5.92
2023-02-14T20:08:49.131Z,5.85
2023-02-14T20:11:40.064Z,5.82
2023-02-14T20:14:07.140Z,5.80
2023-02-14T20:16:35.203Z,5.75
2023-02-14T20:19:03.096Z,5.78
2023-02-14T20:21:29.684Z,5.78
2023-02-14T20:24:03.262Z,5.79
2023-02-14T20:26:32.101Z,5.84
2023-02-14T20:28:59.880Z,5.80
2023-02-14T20:31:26.574Z,5.80
2023-02-14T20:33:53.042Z,5.78
2023-02-14T20:36:20.585Z,5.62
2023-02-14T20:38:47.266Z,5.57
2023-02-14T20:41:16.640Z,5.58
2023-02-14T20:43:43.059Z,5.63
2023-02-14T20:46:09.480Z,5.68
2023-02-14T20:48:35.913Z,5.60
2023-02-14T20:51:11.203Z,5.56
2023-02-14T20:53:37.947Z,5.42
2023-02-14T20:56:04.560Z,5.38
2023-02-14T20:58:31.724Z,5.30
2023-02-14T21:01:06.043Z,5.32
2023-02-14T21:03:35.596Z,5.31
2023-02-14T21:06:06.634Z,5.25
2023-02-14T21:08:33.577Z,5.22
2023-02-14T21:11:00.531Z,5.21
2023-02-14T21:13:27.106Z,5.15
2023-02-14T21:15:54.005Z,5.07
2023-02-14T21:18:20.410Z,5.00
2023-02-14T21:20:46.802Z,4.87
2023-02-14T21:23:13.395Z,4.77
2023-02-14T21:25:39.820Z,4.70
2023-02-14T21:28:06.229Z,4.64
2023-02-14T21:30:32.808Z,4.58
2023-02-14T21:33:00.134Z,4.49
2023-02-14T21:35:26.556Z,4.42
2023-02-14T21:37:52.908Z,4.37
2023-02-14T21:40:19.274Z,4.30
2023-02-14T21:42:45.726Z,4.25
2023-02-14T21:45:32.061Z,4.19
2023-02-14T21:48:17.242Z,4.09
2023-02-14T21:50:43.608Z,4.01
2023-02-14T21:53:10.017Z,3.95
2023-02-14T21:55:38.460Z,3.91
2023-02-14T21:58:04.832Z,3.85
2023-02-14T22:00:31.168Z,3.81
2023-02-14T22:02:57.561Z,3.75
2023-02-14T22:05:25.312Z,3.72
2023-02-14T22:07:51.711Z,3.62
2023-02-14T22:10:18.098Z,3.61
2023-02-14T22:12:44.504Z,3.51
2023-02-14T22:15:11.070Z,3.53
2023-02-14T22:17:38.381Z,3.50
2023-02-14T22:20:06.376Z,3.47
2023-02-14T22:22:34.508Z,3.44
2023-02-14T22:25:00.858Z,3.32
2023-02-14T22:27:27.225Z,3.24
2023-02-14T22:29:53.579Z,3.31
2023-02-14T22:32:20.139Z,3.20
2023-02-14T22:34:46.928Z,3.16
2023-02-14T22:37:13.413Z,3.17
2023-02-14T22:39:39.771Z,3.14
2023-02-14T22:42:06.867Z,3.19
2023-02-14T22:44:33.232Z,3.35
2023-02-14T22:46:59.785Z,3.46
2023-02-14T22:49:26.120Z,3.63
2023-02-14T22:51:52.586Z,3.71
2023-02-14T22:54:18.925Z,3.63
2023-02-14T22:56:47.495Z,3.70
2023-02-14T22:59:22.839Z,3.74
2023-02-14T23:01:51.018Z,3.75
2023-02-14T23:04:21.479Z,3.78
2023-02-14T23:06:48.608Z,3.74
2023-02-14T23:09:15.760Z,3.85
2023-02-14T23:11:43.397Z,3.94
2023-02-14T23:14:30.652Z,3.95
2023-02-14T23:17:16.230Z,3.95
2023-02-14T23:20:02.560Z,3.89
2023-02-14T23:22:33.181Z,3.86
2023-02-14T23:25:02.145Z,3.85
2023-02-14T23:27:44.078Z,3.83
2023-02-14T23:30:15.011Z,3.83
2023-02-14T23:32:42.227Z,3.79
2023-02-14T23:35:09.255Z,3.78
2023-02-14T23:37:35.870Z,3.79
2023-02-14T23:40:02.428Z,3.75
2023-02-14T23:42:28.923Z,3.71
2023-02-14T23:45:15.301Z,3.64
2023-02-14T23:47:41.653Z,3.51
2023-02-14T23:50:08.459Z,3.40
2023-02-14T23:52:36.023Z,3.46
2023-02-14T23:55:04.211Z,3.51
2023-02-14T23:57:30.787Z,3.44
2023-02-14T23:59:57.113Z,3.38
